sensor_id;sensor_type;location;lat;lon;timestamp;P1;durP1;ratioP1;P2;durP2;ratioP2
14681;SDS011;7429;52.498;13.480;2024-03-29T00:02:45;4.00;;;3.03;;
14681;SDS011;7429;52.498;13.480;2024-03-29T00:05:46;3.27;;;3.00;;
14681;SDS011;7429;52.498;13.480;2024-03-29T00:08:47;2.83;;;2.63;;
14681;SDS011;7429;52.498;13.480;2024-03-29T00:11:48;3.10;;;2.90;;
14681;SDS011;7429;52.498;13.480;2024-03-29T00:14:50;3.53;;;2.77;;
14681;SDS011;7429;52.498;13.480;2024-03-29T00:17:52;3.30;;;2.83;;
14681;SDS011;7429;52.498;13.480;2024-03-29T00:20:54;2.43;;;2.23;;
14681;SDS011;7429;52.498;13.480;2024-03-29T00:23:55;2.50;;;2.30;;
14681;SDS011;7429;52.498;13.480;2024-03-29T00:26:56;3.87;;;2.70;;
14681;SDS011;7429;52.498;13.480;2024-03-29T00:29:57;2.90;;;2.70;;
14681;SDS011;7429;52.498;13.480;2024-03-29T00:33:01;2.97;;;2.73;;
14681;SDS011;7429;52.498;13.480;2024-03-29T00:36:03;2.67;;;2.47;;
14681;SDS011;7429;52.498;13.480;2024-03-29T00:39:05;3.10;;;2.60;;
14681;SDS011;7429;52.498;13.480;2024-03-29T00:42:06;2.60;;;2.40;;
14681;SDS011;7429;52.498;13.480;2024-03-29T00:45:07;2.30;;;2.20;;
14681;SDS011;7429;52.498;13.480;2024-03-29T00:48:10;2.53;;;2.40;;
14681;SDS011;7429;52.498;13.480;2024-03-29T00:51:11;9.57;;;3.13;;
14681;SDS011;7429;52.498;13.480;2024-03-29T00:54:13;3.07;;;2.87;;
14681;SDS011;7429;52.498;13.480;2024-03-29T00:57:14;2.80;;;2.60;;
14681;SDS011;7429;52.498;13.480;2024-03-29T01:00:15;2.60;;;2.43;;
14681;SDS011;7429;52.498;13.480;2024-03-29T01:03:18;3.53;;;2.87;;
14681;SDS011;7429;52.498;13.480;2024-03-29T01:06:19;5.17;;;3.23;;
14681;SDS011;7429;52.498;13.480;2024-03-29T01:09:20;4.03;;;2.93;;
14681;SDS011;7429;52.498;13.480;2024-03-29T01:12:22;3.33;;;2.90;;
14681;SDS011;7429;52.498;13.480;2024-03-29T01:15:24;4.20;;;2.80;;
14681;SDS011;7429;52.498;13.480;2024-03-29T01:18:28;4.03;;;3.73;;
14681;SDS011;7429;52.498;13.480;2024-03-29T01:21:29;3.10;;;2.90;;
14681;SDS011;7429;52.498;13.480;2024-03-29T01:24:32;3.73;;;3.53;;
14681;SDS011;7429;52.498;13.480;2024-03-29T01:27:33;4.33;;;3.97;;
14681;SDS011;7429;52.498;13.480;2024-03-29T01:30:35;3.30;;;3.10;;
14681;SDS011;7429;52.498;13.480;2024-03-29T01:33:40;2.97;;;2.87;;
14681;SDS011;7429;52.498;13.480;2024-03-29T01:36:41;3.33;;;2.90;;
14681;SDS011;7429;52.498;13.480;2024-03-29T01:39:42;3.03;;;2.80;;
14681;SDS011;7429;52.498;13.480;2024-03-29T01:42:43;2.50;;;2.40;;
14681;SDS011;7429;52.498;13.480;2024-03-29T01:45:46;2.80;;;2.60;;
14681;SDS011;7429;52.498;13.480;2024-03-29T01:48:51;3.13;;;2.93;;
14681;SDS011;7429;52.498;13.480;2024-03-29T01:51:54;4.10;;;2.80;;
14681;SDS011;7429;52.498;13.480;2024-03-29T01:54:56;3.17;;;2.87;;
14681;SDS011;7429;52.498;13.480;2024-03-29T01:57:58;3.53;;;3.23;;
14681;SDS011;7429;52.498;13.480;2024-03-29T02:01:01;3.77;;;3.47;;
14681;SDS011;7429;52.498;13.480;2024-03-29T02:04:07;3.70;;;2.80;;
14681;SDS011;7429;52.498;13.480;2024-03-29T02:07:10;2.60;;;2.43;;
14681;SDS011;7429;52.498;13.480;2024-03-29T02:10:13;4.60;;;3.17;;
14681;SDS011;7429;52.498;13.480;2024-03-29T02:13:16;3.33;;;2.80;;
14681;SDS011;7429;52.498;13.480;2024-03-29T02:16:19;3.33;;;3.03;;
14681;SDS011;7429;52.498;13.480;2024-03-29T02:19:23;4.60;;;3.80;;
14681;SDS011;7429;52.498;13.480;2024-03-29T02:22:28;4.33;;;4.03;;
14681;SDS011;7429;52.498;13.480;2024-03-29T02:25:33;5.20;;;3.10;;
14681;SDS011;7429;52.498;13.480;2024-03-29T02:28:36;4.13;;;3.60;;
14681;SDS011;7429;52.498;13.480;2024-03-29T02:31:38;4.93;;;3.27;;
14681;SDS011;7429;52.498;13.480;2024-03-29T02:34:40;4.77;;;3.63;;
14681;SDS011;7429;52.498;13.480;2024-03-29T02:37:42;3.93;;;3.63;;
14681;SDS011;7429;52.498;13.480;2024-03-29T02:40:46;3.57;;;3.30;;
14681;SDS011;7429;52.498;13.480;2024-03-29T02:43:48;3.80;;;3.50;;
14681;SDS011;7429;52.498;13.480;2024-03-29T02:46:50;3.10;;;2.90;;
14681;SDS011;7429;52.498;13.480;2024-03-29T02:49:52;3.70;;;3.50;;
14681;SDS011;7429;52.498;13.480;2024-03-29T02:52:53;3.70;;;3.40;;
14681;SDS011;7429;52.498;13.480;2024-03-29T02:55:57;5.77;;;3.60;;
14681;SDS011;7429;52.498;13.480;2024-03-29T02:58:58;3.67;;;3.43;;
14681;SDS011;7429;52.498;13.480;2024-03-29T03:02:01;5.77;;;3.33;;
14681;SDS011;7429;52.498;13.480;2024-03-29T03:05:02;3.50;;;3.30;;
14681;SDS011;7429;52.498;13.480;2024-03-29T03:08:05;4.50;;;4.00;;
14681;SDS011;7429;52.498;13.480;2024-03-29T03:11:26;3.97;;;3.67;;
14681;SDS011;7429;52.498;13.480;2024-03-29T03:14:28;4.57;;;4.17;;
14681;SDS011;7429;52.498;13.480;2024-03-29T03:17:31;4.07;;;3.67;;
14681;SDS011;7429;52.498;13.480;2024-03-29T03:20:33;4.27;;;3.87;;
14681;SDS011;7429;52.498;13.480;2024-03-29T03:23:35;5.33;;;3.70;;
14681;SDS011;7429;52.498;13.480;2024-03-29T03:26:38;4.57;;;3.87;;
14681;SDS011;7429;52.498;13.480;2024-03-29T03:29:40;4.93;;;3.60;;
14681;SDS011;7429;52.498;13.480;2024-03-29T03:32:42;4.17;;;3.87;;
14681;SDS011;7429;52.498;13.480;2024-03-29T03:35:43;4.70;;;3.90;;
14681;SDS011;7429;52.498;13.480;2024-03-29T03:38:45;4.67;;;4.27;;
14681;SDS011;7429;52.498;13.480;2024-03-29T03:41:48;4.93;;;4.27;;
14681;SDS011;7429;52.498;13.480;2024-03-29T03:44:50;4.10;;;3.70;;
14681;SDS011;7429;52.498;13.480;2024-03-29T03:47:52;4.37;;;4.00;;
14681;SDS011;7429;52.498;13.480;2024-03-29T03:50:54;4.60;;;4.30;;
14681;SDS011;7429;52.498;13.480;2024-03-29T03:53:56;3.73;;;3.53;;
14681;SDS011;7429;52.498;13.480;2024-03-29T03:56:58;4.00;;;3.70;;
14681;SDS011;7429;52.498;13.480;2024-03-29T04:00:00;4.73;;;3.97;;
14681;SDS011;7429;52.498;13.480;2024-03-29T04:03:12;5.70;;;3.23;;
14681;SDS011;7429;52.498;13.480;2024-03-29T04:06:14;4.27;;;3.87;;
14681;SDS011;7429;52.498;13.480;2024-03-29T04:09:15;5.60;;;3.27;;
14681;SDS011;7429;52.498;13.480;2024-03-29T04:12:19;3.57;;;3.33;;
14681;SDS011;7429;52.498;13.480;2024-03-29T04:15:20;5.20;;;3.97;;
14681;SDS011;7429;52.498;13.480;2024-03-29T04:18:22;6.23;;;3.87;;
14681;SDS011;7429;52.498;13.480;2024-03-29T04:21:23;4.83;;;4.00;;
14681;SDS011;7429;52.498;13.480;2024-03-29T04:24:27;4.30;;;3.90;;
14681;SDS011;7429;52.498;13.480;2024-03-29T04:27:31;6.80;;;4.43;;
14681;SDS011;7429;52.498;13.480;2024-03-29T04:30:32;8.57;;;4.63;;
14681;SDS011;7429;52.498;13.480;2024-03-29T04:33:34;7.10;;;5.77;;
14681;SDS011;7429;52.498;13.480;2024-03-29T04:36:35;9.83;;;5.53;;
14681;SDS011;7429;52.498;13.480;2024-03-29T04:39:37;8.80;;;4.23;;
14681;SDS011;7429;52.498;13.480;2024-03-29T04:42:40;5.90;;;4.10;;
14681;SDS011;7429;52.498;13.480;2024-03-29T04:45:43;4.40;;;4.10;;
14681;SDS011;7429;52.498;13.480;2024-03-29T04:48:45;4.37;;;4.03;;
14681;SDS011;7429;52.498;13.480;2024-03-29T04:51:48;6.20;;;3.80;;
14681;SDS011;7429;52.498;13.480;2024-03-29T04:54:51;4.20;;;3.87;;
14681;SDS011;7429;52.498;13.480;2024-03-29T04:57:54;4.37;;;3.97;;
14681;SDS011;7429;52.498;13.480;2024-03-29T05:00:56;4.47;;;3.10;;
14681;SDS011;7429;52.498;13.480;2024-03-29T05:03:58;4.63;;;3.63;;
14681;SDS011;7429;52.498;13.480;2024-03-29T05:07:00;4.13;;;3.73;;
14681;SDS011;7429;52.498;13.480;2024-03-29T05:10:02;6.17;;;4.50;;
14681;SDS011;7429;52.498;13.480;2024-03-29T05:13:08;3.80;;;3.30;;
14681;SDS011;7429;52.498;13.480;2024-03-29T05:16:10;3.97;;;3.77;;
14681;SDS011;7429;52.498;13.480;2024-03-29T05:19:13;4.00;;;3.60;;
14681;SDS011;7429;52.498;13.480;2024-03-29T05:22:16;4.10;;;3.80;;
14681;SDS011;7429;52.498;13.480;2024-03-29T05:25:18;4.40;;;3.50;;
14681;SDS011;7429;52.498;13.480;2024-03-29T05:28:22;4.07;;;3.53;;
14681;SDS011;7429;52.498;13.480;2024-03-29T05:31:24;3.70;;;3.20;;
14681;SDS011;7429;52.498;13.480;2024-03-29T05:34:26;4.50;;;4.10;;
14681;SDS011;7429;52.498;13.480;2024-03-29T05:37:28;6.37;;;3.57;;
14681;SDS011;7429;52.498;13.480;2024-03-29T05:40:30;6.30;;;3.50;;
14681;SDS011;7429;52.498;13.480;2024-03-29T05:43:35;3.50;;;3.20;;
14681;SDS011;7429;52.498;13.480;2024-03-29T05:46:37;3.53;;;3.20;;
14681;SDS011;7429;52.498;13.480;2024-03-29T05:49:40;4.13;;;3.80;;
14681;SDS011;7429;52.498;13.480;2024-03-29T05:52:42;5.03;;;4.63;;
14681;SDS011;7429;52.498;13.480;2024-03-29T05:55:44;3.90;;;3.60;;
14681;SDS011;7429;52.498;13.480;2024-03-29T05:58:48;5.87;;;3.30;;
14681;SDS011;7429;52.498;13.480;2024-03-29T06:01:50;4.00;;;3.60;;
14681;SDS011;7429;52.498;13.480;2024-03-29T06:04:52;4.80;;;4.13;;
14681;SDS011;7429;52.498;13.480;2024-03-29T06:07:54;3.57;;;3.37;;
14681;SDS011;7429;52.498;13.480;2024-03-29T06:10:56;4.00;;;3.63;;
14681;SDS011;7429;52.498;13.480;2024-03-29T06:14:00;3.43;;;3.13;;
14681;SDS011;7429;52.498;13.480;2024-03-29T06:17:20;3.93;;;3.43;;
14681;SDS011;7429;52.498;13.480;2024-03-29T06:20:25;3.70;;;3.40;;
14681;SDS011;7429;52.498;13.480;2024-03-29T06:23:27;4.00;;;3.13;;
14681;SDS011;7429;52.498;13.480;2024-03-29T06:26:29;3.53;;;3.10;;
14681;SDS011;7429;52.498;13.480;2024-03-29T06:29:33;3.83;;;3.53;;
14681;SDS011;7429;52.498;13.480;2024-03-29T06:32:35;6.60;;;3.40;;
14681;SDS011;7429;52.498;13.480;2024-03-29T06:35:37;6.27;;;3.70;;
14681;SDS011;7429;52.498;13.480;2024-03-29T06:38:39;4.53;;;3.60;;
14681;SDS011;7429;52.498;13.480;2024-03-29T06:41:42;4.17;;;3.20;;
14681;SDS011;7429;52.498;13.480;2024-03-29T06:44:45;4.27;;;3.87;;
14681;SDS011;7429;52.498;13.480;2024-03-29T06:47:47;3.97;;;3.57;;
14681;SDS011;7429;52.498;13.480;2024-03-29T06:50:49;4.83;;;3.47;;
14681;SDS011;7429;52.498;13.480;2024-03-29T06:53:51;4.60;;;3.50;;
14681;SDS011;7429;52.498;13.480;2024-03-29T06:56:53;4.17;;;3.87;;
14681;SDS011;7429;52.498;13.480;2024-03-29T06:59:57;3.77;;;3.47;;
14681;SDS011;7429;52.498;13.480;2024-03-29T07:02:59;4.73;;;3.60;;
14681;SDS011;7429;52.498;13.480;2024-03-29T07:06:01;5.40;;;3.07;;
14681;SDS011;7429;52.498;13.480;2024-03-29T07:09:04;4.37;;;4.03;;
14681;SDS011;7429;52.498;13.480;2024-03-29T07:12:06;4.00;;;3.60;;
14681;SDS011;7429;52.498;13.480;2024-03-29T07:15:10;6.27;;;3.90;;
14681;SDS011;7429;52.498;13.480;2024-03-29T07:18:12;3.60;;;3.30;;
14681;SDS011;7429;52.498;13.480;2024-03-29T07:21:15;7.53;;;3.33;;
14681;SDS011;7429;52.498;13.480;2024-03-29T07:24:17;3.17;;;2.90;;
14681;SDS011;7429;52.498;13.480;2024-03-29T07:27:20;2.93;;;2.73;;
14681;SDS011;7429;52.498;13.480;2024-03-29T07:30:23;4.00;;;3.20;;
14681;SDS011;7429;52.498;13.480;2024-03-29T07:33:25;4.97;;;2.60;;
14681;SDS011;7429;52.498;13.480;2024-03-29T07:36:28;3.53;;;3.00;;
14681;SDS011;7429;52.498;13.480;2024-03-29T07:39:33;4.13;;;2.93;;
14681;SDS011;7429;52.498;13.480;2024-03-29T07:42:36;5.53;;;3.00;;
14681;SDS011;7429;52.498;13.480;2024-03-29T07:45:39;3.03;;;2.60;;
14681;SDS011;7429;52.498;13.480;2024-03-29T07:48:42;3.23;;;2.97;;
14681;SDS011;7429;52.498;13.480;2024-03-29T07:51:44;4.13;;;2.67;;
14681;SDS011;7429;52.498;13.480;2024-03-29T07:54:46;5.20;;;3.10;;
14681;SDS011;7429;52.498;13.480;2024-03-29T07:57:48;4.60;;;3.17;;
14681;SDS011;7429;52.498;13.480;2024-03-29T08:00:52;3.43;;;3.07;;
14681;SDS011;7429;52.498;13.480;2024-03-29T08:03:54;5.97;;;3.27;;
14681;SDS011;7429;52.498;13.480;2024-03-29T08:06:57;4.43;;;3.00;;
14681;SDS011;7429;52.498;13.480;2024-03-29T08:09:59;3.23;;;2.97;;
14681;SDS011;7429;52.498;13.480;2024-03-29T08:13:01;4.03;;;3.17;;
14681;SDS011;7429;52.498;13.480;2024-03-29T08:16:05;6.00;;;3.10;;
14681;SDS011;7429;52.498;13.480;2024-03-29T08:19:07;3.67;;;2.83;;
14681;SDS011;7429;52.498;13.480;2024-03-29T08:22:10;2.97;;;2.63;;
14681;SDS011;7429;52.498;13.480;2024-03-29T08:25:12;3.73;;;2.83;;
14681;SDS011;7429;52.498;13.480;2024-03-29T08:28:14;3.20;;;2.67;;
14681;SDS011;7429;52.498;13.480;2024-03-29T08:31:18;3.00;;;2.83;;
14681;SDS011;7429;52.498;13.480;2024-03-29T08:34:20;4.43;;;3.87;;
14681;SDS011;7429;52.498;13.480;2024-03-29T08:37:22;6.10;;;2.70;;
14681;SDS011;7429;52.498;13.480;2024-03-29T08:40:25;3.77;;;2.80;;
14681;SDS011;7429;52.498;13.480;2024-03-29T08:43:29;6.50;;;3.33;;
14681;SDS011;7429;52.498;13.480;2024-03-29T08:46:33;8.43;;;3.20;;
14681;SDS011;7429;52.498;13.480;2024-03-29T08:49:35;4.17;;;3.73;;
14681;SDS011;7429;52.498;13.480;2024-03-29T08:52:38;5.10;;;3.53;;
14681;SDS011;7429;52.498;13.480;2024-03-29T08:55:40;3.47;;;2.90;;
14681;SDS011;7429;52.498;13.480;2024-03-29T08:58:42;4.03;;;2.77;;
14681;SDS011;7429;52.498;13.480;2024-03-29T09:01:46;2.93;;;2.63;;
14681;SDS011;7429;52.498;13.480;2024-03-29T09:04:49;2.40;;;2.20;;
14681;SDS011;7429;52.498;13.480;2024-03-29T09:07:51;3.60;;;2.57;;
14681;SDS011;7429;52.498;13.480;2024-03-29T09:10:53;3.37;;;3.07;;
14681;SDS011;7429;52.498;13.480;2024-03-29T09:13:55;2.93;;;2.73;;
14681;SDS011;7429;52.498;13.480;2024-03-29T09:17:00;3.03;;;2.73;;
14681;SDS011;7429;52.498;13.480;2024-03-29T09:20:03;2.97;;;2.50;;
14681;SDS011;7429;52.498;13.480;2024-03-29T09:23:06;3.10;;;2.70;;
14681;SDS011;7429;52.498;13.480;2024-03-29T09:26:08;3.33;;;3.03;;
14681;SDS011;7429;52.498;13.480;2024-03-29T09:29:12;2.43;;;2.20;;
14681;SDS011;7429;52.498;13.480;2024-03-29T09:32:17;2.90;;;2.33;;
14681;SDS011;7429;52.498;13.480;2024-03-29T09:35:20;4.07;;;2.60;;
14681;SDS011;7429;52.498;13.480;2024-03-29T09:38:22;3.77;;;2.33;;
14681;SDS011;7429;52.498;13.480;2024-03-29T09:41:25;3.23;;;2.37;;
14681;SDS011;7429;52.498;13.480;2024-03-29T09:44:30;7.03;;;3.10;;
14681;SDS011;7429;52.498;13.480;2024-03-29T09:47:38;3.63;;;2.40;;
14681;SDS011;7429;52.498;13.480;2024-03-29T09:50:40;3.47;;;2.57;;
14681;SDS011;7429;52.498;13.480;2024-03-29T09:53:43;2.50;;;2.13;;
14681;SDS011;7429;52.498;13.480;2024-03-29T09:56:45;4.17;;;2.60;;
14681;SDS011;7429;52.498;13.480;2024-03-29T09:59:47;4.47;;;2.50;;
14681;SDS011;7429;52.498;13.480;2024-03-29T10:02:52;5.97;;;3.07;;
14681;SDS011;7429;52.498;13.480;2024-03-29T10:05:57;2.80;;;2.60;;
14681;SDS011;7429;52.498;13.480;2024-03-29T10:09:00;4.13;;;2.77;;
14681;SDS011;7429;52.498;13.480;2024-03-29T10:12:02;3.87;;;2.67;;
14681;SDS011;7429;52.498;13.480;2024-03-29T10:15:06;3.70;;;2.93;;
14681;SDS011;7429;52.498;13.480;2024-03-29T10:18:15;3.23;;;2.90;;
14681;SDS011;7429;52.498;13.480;2024-03-29T10:21:24;5.57;;;3.20;;
14681;SDS011;7429;52.498;13.480;2024-03-29T10:24:26;3.77;;;3.00;;
14681;SDS011;7429;52.498;13.480;2024-03-29T10:27:28;3.33;;;2.50;;
14681;SDS011;7429;52.498;13.480;2024-03-29T10:30:31;3.17;;;2.90;;
14681;SDS011;7429;52.498;13.480;2024-03-29T10:33:34;5.40;;;2.53;;
14681;SDS011;7429;52.498;13.480;2024-03-29T10:36:36;2.20;;;2.10;;
14681;SDS011;7429;52.498;13.480;2024-03-29T10:39:42;3.13;;;2.30;;
14681;SDS011;7429;52.498;13.480;2024-03-29T10:42:44;3.57;;;2.37;;
14681;SDS011;7429;52.498;13.480;2024-03-29T10:45:49;2.30;;;2.10;;
14681;SDS011;7429;52.498;13.480;2024-03-29T10:48:56;3.10;;;2.40;;
14681;SDS011;7429;52.498;13.480;2024-03-29T10:51:59;2.67;;;2.33;;
14681;SDS011;7429;52.498;13.480;2024-03-29T10:55:03;2.77;;;2.40;;
14681;SDS011;7429;52.498;13.480;2024-03-29T10:58:06;2.73;;;2.60;;
14681;SDS011;7429;52.498;13.480;2024-03-29T11:01:12;2.90;;;2.70;;
14681;SDS011;7429;52.498;13.480;2024-03-29T11:04:19;2.77;;;2.60;;
14681;SDS011;7429;52.498;13.480;2024-03-29T11:07:27;2.93;;;2.40;;
14681;SDS011;7429;52.498;13.480;2024-03-29T11:10:34;3.37;;;2.20;;
14681;SDS011;7429;52.498;13.480;2024-03-29T11:13:45;2.53;;;2.43;;
14681;SDS011;7429;52.498;13.480;2024-03-29T11:16:55;6.07;;;2.57;;
14681;SDS011;7429;52.498;13.480;2024-03-29T11:20:00;3.03;;;2.70;;
14681;SDS011;7429;52.498;13.480;2024-03-29T11:23:06;2.70;;;2.50;;
14681;SDS011;7429;52.498;13.480;2024-03-29T11:26:11;2.53;;;2.13;;
14681;SDS011;7429;52.498;13.480;2024-03-29T11:29:19;2.40;;;2.30;;
14681;SDS011;7429;52.498;13.480;2024-03-29T11:35:42;2.33;;;2.23;;
14681;SDS011;7429;52.498;13.480;2024-03-29T11:38:45;2.80;;;2.50;;
14681;SDS011;7429;52.498;13.480;2024-03-29T11:41:48;3.50;;;2.00;;
14681;SDS011;7429;52.498;13.480;2024-03-29T11:44:51;1.93;;;1.83;;
14681;SDS011;7429;52.498;13.480;2024-03-29T11:47:54;2.30;;;2.07;;
14681;SDS011;7429;52.498;13.480;2024-03-29T11:50:58;2.63;;;2.43;;
14681;SDS011;7429;52.498;13.480;2024-03-29T11:54:02;2.60;;;2.40;;
14681;SDS011;7429;52.498;13.480;2024-03-29T11:57:04;2.40;;;2.20;;
14681;SDS011;7429;52.498;13.480;2024-03-29T12:00:06;2.20;;;1.90;;
14681;SDS011;7429;52.498;13.480;2024-03-29T12:03:10;1.90;;;1.80;;
14681;SDS011;7429;52.498;13.480;2024-03-29T12:06:14;2.10;;;1.77;;
14681;SDS011;7429;52.498;13.480;2024-03-29T12:09:17;2.80;;;1.97;;
14681;SDS011;7429;52.498;13.480;2024-03-29T12:12:19;3.50;;;2.47;;
14681;SDS011;7429;52.498;13.480;2024-03-29T12:15:23;2.10;;;2.00;;
14681;SDS011;7429;52.498;13.480;2024-03-29T12:18:25;4.40;;;2.40;;
14681;SDS011;7429;52.498;13.480;2024-03-29T12:21:29;4.00;;;3.60;;
14681;SDS011;7429;52.498;13.480;2024-03-29T12:24:32;4.73;;;3.90;;
14681;SDS011;7429;52.498;13.480;2024-03-29T12:27:34;6.90;;;4.57;;
14681;SDS011;7429;52.498;13.480;2024-03-29T12:30:36;3.10;;;2.80;;
14681;SDS011;7429;52.498;13.480;2024-03-29T12:33:39;3.20;;;2.63;;
14681;SDS011;7429;52.498;13.480;2024-03-29T12:36:43;2.53;;;2.33;;
14681;SDS011;7429;52.498;13.480;2024-03-29T12:39:48;2.80;;;2.60;;
14681;SDS011;7429;52.498;13.480;2024-03-29T12:42:54;2.37;;;2.17;;
14681;SDS011;7429;52.498;13.480;2024-03-29T12:45:56;3.00;;;2.70;;
14681;SDS011;7429;52.498;13.480;2024-03-29T12:48:59;2.10;;;2.00;;
14681;SDS011;7429;52.498;13.480;2024-03-29T12:52:02;2.53;;;1.90;;
14681;SDS011;7429;52.498;13.480;2024-03-29T12:55:07;2.03;;;1.70;;
14681;SDS011;7429;52.498;13.480;2024-03-29T12:58:10;2.30;;;2.07;;
14681;SDS011;7429;52.498;13.480;2024-03-29T13:01:13;2.35;;;2.05;;
14681;SDS011;7429;52.498;13.480;2024-03-29T13:04:15;2.88;;;2.05;;
14681;SDS011;7429;52.498;13.480;2024-03-29T13:07:18;3.88;;;2.08;;
14681;SDS011;7429;52.498;13.480;2024-03-29T13:10:21;4.47;;;2.30;;
14681;SDS011;7429;52.498;13.480;2024-03-29T13:13:23;2.88;;;2.58;;
14681;SDS011;7429;52.498;13.480;2024-03-29T13:16:25;2.50;;;2.30;;
14681;SDS011;7429;52.498;13.480;2024-03-29T13:19:27;2.88;;;2.22;;
14681;SDS011;7429;52.498;13.480;2024-03-29T13:22:31;5.07;;;2.00;;
14681;SDS011;7429;52.498;13.480;2024-03-29T13:25:33;2.50;;;2.40;;
14681;SDS011;7429;52.498;13.480;2024-03-29T13:28:35;3.53;;;2.30;;
14681;SDS011;7429;52.498;13.480;2024-03-29T13:31:37;4.95;;;2.55;;
14681;SDS011;7429;52.498;13.480;2024-03-29T13:34:39;4.15;;;2.50;;
14681;SDS011;7429;52.498;13.480;2024-03-29T13:37:43;2.50;;;1.95;;
14681;SDS011;7429;52.498;13.480;2024-03-29T13:40:46;3.10;;;2.35;;
14681;SDS011;7429;52.498;13.480;2024-03-29T13:43:48;3.58;;;2.13;;
14681;SDS011;7429;52.498;13.480;2024-03-29T13:46:50;2.80;;;2.60;;
14681;SDS011;7429;52.498;13.480;2024-03-29T13:49:54;2.90;;;2.13;;
14681;SDS011;7429;52.498;13.480;2024-03-29T13:52:58;3.33;;;2.10;;
14681;SDS011;7429;52.498;13.480;2024-03-29T13:56:00;2.50;;;2.30;;
14681;SDS011;7429;52.498;13.480;2024-03-29T13:59:03;2.00;;;1.90;;
14681;SDS011;7429;52.498;13.480;2024-03-29T14:02:05;8.38;;;2.50;;
14681;SDS011;7429;52.498;13.480;2024-03-29T14:05:07;3.22;;;2.55;;
14681;SDS011;7429;52.498;13.480;2024-03-29T14:08:12;2.08;;;1.92;;
14681;SDS011;7429;52.498;13.480;2024-03-29T14:11:14;2.35;;;2.15;;
14681;SDS011;7429;52.498;13.480;2024-03-29T14:14:18;2.42;;;2.20;;
14681;SDS011;7429;52.498;13.480;2024-03-29T14:17:20;2.35;;;2.05;;
14681;SDS011;7429;52.498;13.480;2024-03-29T14:20:22;3.60;;;2.03;;
14681;SDS011;7429;52.498;13.480;2024-03-29T14:23:26;2.72;;;2.50;;
14681;SDS011;7429;52.498;13.480;2024-03-29T14:26:28;2.65;;;2.45;;
14681;SDS011;7429;52.498;13.480;2024-03-29T14:29:31;2.47;;;2.25;;
14681;SDS011;7429;52.498;13.480;2024-03-29T14:32:33;3.30;;;2.03;;
14681;SDS011;7429;52.498;13.480;2024-03-29T14:35:35;2.47;;;1.95;;
14681;SDS011;7429;52.498;13.480;2024-03-29T14:38:39;3.90;;;2.25;;
14681;SDS011;7429;52.498;13.480;2024-03-29T14:41:41;2.47;;;2.30;;
14681;SDS011;7429;52.498;13.480;2024-03-29T14:44:43;2.65;;;2.45;;
14681;SDS011;7429;52.498;13.480;2024-03-29T14:47:46;2.13;;;1.83;;
14681;SDS011;7429;52.498;13.480;2024-03-29T14:50:48;2.60;;;2.40;;
14681;SDS011;7429;52.498;13.480;2024-03-29T14:53:51;2.97;;;2.20;;
14681;SDS011;7429;52.498;13.480;2024-03-29T14:56:53;3.20;;;2.25;;
14681;SDS011;7429;52.498;13.480;2024-03-29T14:59:55;2.58;;;2.38;;
14681;SDS011;7429;52.498;13.480;2024-03-29T15:02:58;1.98;;;1.73;;
14681;SDS011;7429;52.498;13.480;2024-03-29T15:06:00;5.45;;;2.80;;
14681;SDS011;7429;52.498;13.480;2024-03-29T15:09:04;2.05;;;1.95;;
14681;SDS011;7429;52.498;13.480;2024-03-29T15:12:06;2.10;;;1.90;;
14681;SDS011;7429;52.498;13.480;2024-03-29T15:15:09;2.53;;;2.33;;
14681;SDS011;7429;52.498;13.480;2024-03-29T15:18:12;2.40;;;2.20;;
14681;SDS011;7429;52.498;13.480;2024-03-29T15:21:14;2.70;;;2.50;;
14681;SDS011;7429;52.498;13.480;2024-03-29T15:24:19;2.03;;;1.92;;
14681;SDS011;7429;52.498;13.480;2024-03-29T15:27:22;2.28;;;2.17;;
14681;SDS011;7429;52.498;13.480;2024-03-29T15:30:48;2.50;;;2.20;;
14681;SDS011;7429;52.498;13.480;2024-03-29T15:33:54;3.08;;;2.33;;
14681;SDS011;7429;52.498;13.480;2024-03-29T15:36:56;2.13;;;2.00;;
14681;SDS011;7429;52.498;13.480;2024-03-29T15:39:59;2.10;;;2.00;;
14681;SDS011;7429;52.498;13.480;2024-03-29T15:43:01;1.98;;;1.80;;
14681;SDS011;7429;52.498;13.480;2024-03-29T15:46:04;2.35;;;2.15;;
14681;SDS011;7429;52.498;13.480;2024-03-29T15:49:06;3.58;;;3.25;;
14681;SDS011;7429;52.498;13.480;2024-03-29T15:52:08;2.83;;;2.60;;
14681;SDS011;7429;52.498;13.480;2024-03-29T15:55:11;2.60;;;2.15;;
14681;SDS011;7429;52.498;13.480;2024-03-29T15:58:14;2.65;;;2.45;;
14681;SDS011;7429;52.498;13.480;2024-03-29T16:01:16;2.28;;;1.90;;
14681;SDS011;7429;52.498;13.480;2024-03-29T16:04:18;2.42;;;2.08;;
14681;SDS011;7429;52.498;13.480;2024-03-29T16:07:20;2.25;;;2.05;;
14681;SDS011;7429;52.498;13.480;2024-03-29T16:10:24;3.63;;;2.65;;
14681;SDS011;7429;52.498;13.480;2024-03-29T16:13:26;2.47;;;2.25;;
14681;SDS011;7429;52.498;13.480;2024-03-29T16:16:30;2.13;;;2.03;;
14681;SDS011;7429;52.498;13.480;2024-03-29T16:19:32;1.92;;;1.83;;
14681;SDS011;7429;52.498;13.480;2024-03-29T16:22:33;2.03;;;1.83;;
14681;SDS011;7429;52.498;13.480;2024-03-29T16:25:37;2.33;;;2.22;;
14681;SDS011;7429;52.498;13.480;2024-03-29T16:28:38;2.30;;;2.13;;
14681;SDS011;7429;52.498;13.480;2024-03-29T16:31:41;1.52;;;1.52;;
14681;SDS011;7429;52.498;13.480;2024-03-29T16:34:42;1.80;;;1.70;;
14681;SDS011;7429;52.498;13.480;2024-03-29T16:37:44;2.58;;;2.38;;
14681;SDS011;7429;52.498;13.480;2024-03-29T16:40:46;3.05;;;2.30;;
14681;SDS011;7429;52.498;13.480;2024-03-29T16:43:49;2.13;;;2.03;;
14681;SDS011;7429;52.498;13.480;2024-03-29T16:46:50;3.50;;;2.63;;
14681;SDS011;7429;52.498;13.480;2024-03-29T16:49:52;2.50;;;2.33;;
14681;SDS011;7429;52.498;13.480;2024-03-29T16:52:53;2.53;;;2.40;;
14681;SDS011;7429;52.498;13.480;2024-03-29T16:55:57;2.30;;;2.10;;
14681;SDS011;7429;52.498;13.480;2024-03-29T16:58:58;3.42;;;2.67;;
14681;SDS011;7429;52.498;13.480;2024-03-29T17:02:00;3.00;;;2.58;;
14681;SDS011;7429;52.498;13.480;2024-03-29T17:05:02;2.75;;;2.53;;
14681;SDS011;7429;52.498;13.480;2024-03-29T17:08:05;3.17;;;2.88;;
14681;SDS011;7429;52.498;13.480;2024-03-29T17:11:08;2.72;;;2.53;;
14681;SDS011;7429;52.498;13.480;2024-03-29T17:14:10;2.75;;;2.55;;
14681;SDS011;7429;52.498;13.480;2024-03-29T17:17:12;2.50;;;2.30;;
14681;SDS011;7429;52.498;13.480;2024-03-29T17:20:14;2.65;;;2.45;;
14681;SDS011;7429;52.498;13.480;2024-03-29T17:23:15;2.97;;;2.07;;
14681;SDS011;7429;52.498;13.480;2024-03-29T17:26:19;2.50;;;1.90;;
14681;SDS011;7429;52.498;13.480;2024-03-29T17:29:20;2.13;;;2.03;;
14681;SDS011;7429;52.498;13.480;2024-03-29T17:32:23;2.40;;;2.30;;
14681;SDS011;7429;52.498;13.480;2024-03-29T17:35:24;2.20;;;2.10;;
14681;SDS011;7429;52.498;13.480;2024-03-29T17:38:26;2.87;;;2.67;;
14681;SDS011;7429;52.498;13.480;2024-03-29T17:41:30;2.70;;;2.50;;
14681;SDS011;7429;52.498;13.480;2024-03-29T17:44:32;2.47;;;2.30;;
14681;SDS011;7429;52.498;13.480;2024-03-29T17:47:34;3.30;;;2.47;;
14681;SDS011;7429;52.498;13.480;2024-03-29T17:50:36;2.30;;;2.20;;
14681;SDS011;7429;52.498;13.480;2024-03-29T17:53:37;4.03;;;2.60;;
14681;SDS011;7429;52.498;13.480;2024-03-29T17:56:41;2.63;;;2.53;;
14681;SDS011;7429;52.498;13.480;2024-03-29T17:59:42;2.93;;;2.73;;
14681;SDS011;7429;52.498;13.480;2024-03-29T18:02:44;3.03;;;2.83;;
14681;SDS011;7429;52.498;13.480;2024-03-29T18:05:46;2.83;;;2.73;;
14681;SDS011;7429;52.498;13.480;2024-03-29T18:08:48;3.23;;;2.60;;
14681;SDS011;7429;52.498;13.480;2024-03-29T18:11:51;2.23;;;2.13;;
14681;SDS011;7429;52.498;13.480;2024-03-29T18:14:53;2.30;;;2.03;;
14681;SDS011;7429;52.498;13.480;2024-03-29T18:17:56;3.20;;;3.00;;
14681;SDS011;7429;52.498;13.480;2024-03-29T18:20:57;2.50;;;2.40;;
14681;SDS011;7429;52.498;13.480;2024-03-29T18:24:00;2.70;;;2.50;;
14681;SDS011;7429;52.498;13.480;2024-03-29T18:27:02;2.90;;;2.70;;